Time;durP1;ratioP1;P1;durP2;ratioP2;P2;SDS_P1;SDS_P2;PMS_P1;PMS_P2;Temp;Humidity;BMP_temperature;BMP_pressure;BME280_temperature;BME280_humidity;BME280_pressure;Samples;Min_cycle;Max_cycle;Signal;HPM_P1;HPM_P2
2022/05/02 00:01:27;;;;;;;8.68;6.38;;;5.70;99.90;;;;;;5075241;28;20071;-76
2022/05/02 00:03:53;;;;;;;9.27;6.63;;;5.70;99.90;;;;;;5075388;28;20076;-76
2022/05/02 00:06:19;;;;;;;10.60;6.35;;;5.70;99.90;;;;;;5075358;28;20045;-76
2022/05/02 00:08:44;;;;;;;9.48;5.90;;;5.70;99.90;;;;;;5074298;28;20072;-75
2022/05/02 00:11:10;;;;;;;9.07;6.25;;;5.70;99.90;;;;;;5073840;28;20147;-75
2022/05/02 00:13:35;;;;;;;10.63;6.35;;;5.70;99.90;;;;;;5075427;28;20044;-75
2022/05/02 00:16:01;;;;;;;12.00;6.78;;;5.70;99.90;;;;;;5074009;28;20053;-75
2022/05/02 00:18:28;;;;;;;11.00;6.22;;;5.70;99.90;;;;;;5074015;28;20063;-75
2022/05/02 00:20:53;;;;;;;13.63;8.23;;;5.70;99.90;;;;;;5075034;28;20060;-75
2022/05/02 00:23:20;;;;;;;10.73;6.60;;;5.70;99.90;;;;;;5073669;28;20127;-75
2022/05/02 00:25:46;;;;;;;14.88;7.00;;;5.70;99.90;;;;;;5074662;28;20491;-75
2022/05/02 00:28:13;;;;;;;14.45;8.02;;;5.70;99.90;;;;;;5074713;28;20526;-75
2022/05/02 00:30:39;;;;;;;8.75;6.60;;;5.70;99.90;;;;;;5074819;28;20048;-75
2022/05/02 00:33:06;;;;;;;8.77;6.85;;;5.70;99.90;;;;;;5073436;28;20080;-75
2022/05/02 00:35:31;;;;;;;12.13;7.28;;;5.60;99.90;;;;;;5074717;28;20043;-75
2022/05/02 00:37:57;;;;;;;11.20;7.20;;;5.70;99.90;;;;;;5074616;28;20052;-76
2022/05/02 00:40:23;;;;;;;11.50;7.55;;;5.70;99.90;;;;;;5074638;28;20123;-75
2022/05/02 00:42:49;;;;;;;14.55;7.53;;;5.60;99.90;;;;;;5074440;28;20483;-76
2022/05/02 00:45:17;;;;;;;11.13;7.28;;;5.60;99.90;;;;;;5073035;28;20428;-76
2022/05/02 00:47:57;;;;;;;10.38;7.35;;;5.60;99.90;;;;;;5073186;28;20048;-76
2022/05/02 00:50:35;;;;;;;13.15;8.52;;;5.70;99.90;;;;;;5073189;28;20044;-75
2022/05/02 00:53:04;;;;;;;11.93;7.88;;;5.70;99.90;;;;;;5074059;28;20475;-77
2022/05/02 00:55:30;;;;;;;12.10;7.40;;;5.60;99.90;;;;;;5074169;28;20041;-74
2022/05/02 00:57:59;;;;;;;14.82;7.60;;;5.70;99.90;;;;;;5074170;28;20491;-74
2022/05/02 01:00:25;;;;;;;10.85;7.38;;;5.70;99.90;;;;;;5074288;28;20063;-77
2022/05/02 01:02:51;;;;;;;11.77;7.10;;;5.70;99.90;;;;;;5072607;28;20488;-76
2022/05/02 01:05:16;;;;;;;14.15;6.53;;;5.60;99.90;;;;;;5073903;28;20063;-75
2022/05/02 01:07:45;;;;;;;11.65;8.25;;;5.60;99.90;;;;;;5072991;28;20067;-75
2022/05/02 01:10:16;;;;;;;12.93;6.90;;;5.60;99.90;;;;;;5072957;28;20063;-75
2022/05/02 01:12:43;;;;;;;10.43;7.45;;;5.50;99.90;;;;;;5074041;28;20063;-75
2022/05/02 01:15:09;;;;;;;9.38;6.88;;;5.50;99.90;;;;;;5074038;28;20041;-75
2022/05/02 01:17:35;;;;;;;11.55;8.45;;;5.50;99.90;;;;;;5073949;28;20049;-75
2022/05/02 01:20:00;;;;;;;11.82;7.53;;;5.50;99.90;;;;;;5073706;28;20040;-75
2022/05/02 01:22:26;;;;;;;14.73;7.60;;;5.50;99.90;;;;;;5073647;28;20499;-75
2022/05/02 01:24:51;;;;;;;12.40;7.55;;;5.40;99.90;;;;;;5072591;28;20495;-75
2022/05/02 01:27:17;;;;;;;11.15;8.05;;;5.50;99.90;;;;;;5073506;28;20094;-75
2022/05/02 01:29:45;;;;;;;10.95;7.53;;;5.50;99.90;;;;;;5073864;28;20510;-75
2022/05/02 01:32:12;;;;;;;11.38;8.32;;;5.40;99.90;;;;;;5072592;28;20052;-75
2022/05/02 01:34:42;;;;;;;14.65;7.97;;;5.40;99.90;;;;;;5073790;28;20058;-75
2022/05/02 01:37:09;;;;;;;13.85;8.38;;;5.40;99.90;;;;;;5073667;28;20071;-75
2022/05/02 01:39:34;;;;;;;12.10;8.30;;;5.40;99.90;;;;;;5073544;28;20049;-75
2022/05/02 01:42:02;;;;;;;13.93;8.73;;;5.40;99.90;;;;;;5072403;28;20131;-75
2022/05/02 01:44:28;;;;;;;13.27;8.27;;;5.40;99.90;;;;;;5072401;28;20048;-75
2022/05/02 01:46:54;;;;;;;14.20;8.40;;;5.30;99.90;;;;;;5072672;28;20071;-75
2022/05/02 01:49:20;;;;;;;13.38;8.88;;;5.30;99.90;;;;;;5072243;28;20114;-75
2022/05/02 01:51:46;;;;;;;14.52;8.48;;;5.30;99.90;;;;;;5073393;28;20426;-75
2022/05/02 01:54:11;;;;;;;16.13;9.05;;;5.30;99.90;;;;;;5073614;28;20478;-75
2022/05/02 01:56:37;;;;;;;13.68;8.90;;;5.30;99.90;;;;;;5072562;28;20061;-78
2022/05/02 01:59:04;;;;;;;14.25;9.00;;;5.30;99.90;;;;;;5072602;28;20059;-76
2022/05/02 02:01:30;;;;;;;15.60;8.85;;;5.30;99.90;;;;;;5073284;28;20040;-76
2022/05/02 02:03:56;;;;;;;15.93;8.85;;;5.30;99.90;;;;;;5073394;28;20132;-76
2022/05/02 02:06:24;;;;;;;13.38;8.70;;;5.40;99.90;;;;;;5072367;28;20059;-76
2022/05/02 02:08:50;;;;;;;16.48;9.48;;;5.40;99.90;;;;;;5072110;28;20083;-76
2022/05/02 02:11:16;;;;;;;15.55;9.23;;;5.30;99.90;;;;;;5073382;28;20029;-76
2022/05/02 02:13:42;;;;;;;13.85;9.48;;;5.40;99.90;;;;;;5073340;28;20333;-76
2022/05/02 02:16:09;;;;;;;12.02;9.38;;;5.40;99.90;;;;;;5073650;28;20139;-76
2022/05/02 02:18:39;;;;;;;16.75;9.05;;;5.30;99.90;;;;;;5073338;28;20040;-75
2022/05/02 02:21:06;;;;;;;12.93;8.48;;;5.30;99.90;;;;;;5073357;28;20059;-76
2022/05/02 02:23:33;;;;;;;15.38;8.93;;;5.30;99.90;;;;;;5071971;28;20454;-76
2022/05/02 02:25:58;;;;;;;13.35;8.10;;;5.30;99.90;;;;;;5073281;28;20132;-76
2022/05/02 02:28:24;;;;;;;14.20;9.60;;;5.30;99.90;;;;;;5073210;28;20133;-75
2022/05/02 02:30:50;;;;;;;14.98;9.35;;;5.30;99.90;;;;;;5073501;28;20110;-76
2022/05/02 02:33:15;;;;;;;14.85;8.68;;;5.30;99.90;;;;;;5071736;28;20479;-75
2022/05/02 02:35:41;;;;;;;12.73;8.85;;;5.20;99.90;;;;;;5071825;28;20518;-75
2022/05/02 02:38:09;;;;;;;12.68;7.82;;;5.20;99.90;;;;;;5073608;28;20097;-75
2022/05/02 02:40:34;;;;;;;15.30;9.63;;;5.20;99.90;;;;;;5076964;28;20040;-75
2022/05/02 02:43:00;;;;;;;13.57;8.45;;;5.20;99.90;;;;;;5075604;28;20364;-76
2022/05/02 02:45:26;;;;;;;13.05;9.15;;;5.20;99.90;;;;;;5075433;28;20086;-76
2022/05/02 02:47:52;;;;;;;13.05;7.95;;;5.00;99.90;;;;;;5075404;28;20165;-76
2022/05/02 02:50:17;;;;;;;11.90;8.25;;;5.00;99.90;;;;;;5076775;28;20048;-76
2022/05/02 02:52:43;;;;;;;11.75;7.65;;;4.90;99.90;;;;;;5076628;28;20063;-76
2022/05/02 02:55:09;;;;;;;10.93;7.95;;;4.90;99.90;;;;;;5076688;28;20120;-75
2022/05/02 02:57:34;;;;;;;11.10;7.57;;;4.80;99.90;;;;;;5076548;28;20067;-76
2022/05/02 03:00:00;;;;;;;14.43;8.82;;;4.80;99.90;;;;;;5076385;28;20476;-76
2022/05/02 03:02:26;;;;;;;13.52;8.15;;;4.80;99.90;;;;;;5076308;28;20059;-75
2022/05/02 03:07:37;;;;;;;13.70;8.65;;;4.70;99.90;;;;;;5075204;28;20041;-75
2022/05/02 03:10:03;;;;;;;13.43;8.35;;;4.70;99.90;;;;;;5076307;28;20110;-75
2022/05/02 03:12:28;;;;;;;11.27;7.60;;;4.70;99.90;;;;;;5076156;28;20495;-75
2022/05/02 03:14:54;;;;;;;10.80;7.80;;;4.70;99.90;;;;;;5076074;28;20041;-75
2022/05/02 03:17:20;;;;;;;9.93;6.55;;;4.60;99.90;;;;;;5076312;28;20044;-75
2022/05/02 03:19:45;;;;;;;12.07;7.97;;;4.50;99.90;;;;;;5074865;28;20044;-76
2022/05/02 03:22:11;;;;;;;11.88;7.03;;;4.50;99.90;;;;;;5076318;28;20053;-76
2022/05/02 03:24:37;;;;;;;11.93;7.68;;;4.50;99.90;;;;;;5076121;28;20037;-74
2022/05/02 03:27:02;;;;;;;9.73;7.05;;;4.50;99.90;;;;;;5076097;28;20395;-74
2022/05/02 03:29:28;;;;;;;12.88;7.30;;;4.40;99.90;;;;;;5075963;28;20044;-75
2022/05/02 03:31:54;;;;;;;11.30;7.68;;;4.40;99.90;;;;;;5074771;28;20182;-75
2022/05/02 03:34:19;;;;;;;11.05;7.00;;;4.30;99.90;;;;;;5074923;28;20045;-75
2022/05/02 03:36:45;;;;;;;10.25;7.72;;;4.30;99.90;;;;;;5076038;28;20049;-75
2022/05/02 03:39:11;;;;;;;11.57;7.10;;;4.20;99.90;;;;;;5074596;28;20040;-75
2022/05/02 03:41:36;;;;;;;10.02;6.95;;;4.20;99.90;;;;;;5074392;28;20040;-75
2022/05/02 03:44:02;;;;;;;11.40;7.22;;;4.20;99.90;;;;;;5075643;28;20044;-74
2022/05/02 03:46:28;;;;;;;13.43;6.70;;;4.20;99.90;;;;;;5075694;28;20052;-75
2022/05/02 03:48:54;;;;;;;10.52;7.18;;;4.10;99.90;;;;;;5075382;28;20445;-75
2022/05/02 03:51:20;;;;;;;11.77;7.82;;;4.10;99.90;;;;;;5075056;28;20364;-75
2022/05/02 03:53:45;;;;;;;12.10;8.00;;;4.10;99.90;;;;;;5074723;28;20480;-75
2022/05/02 03:56:12;;;;;;;11.82;7.82;;;4.20;99.90;;;;;;5073290;28;20055;-74
2022/05/02 03:58:38;;;;;;;10.35;7.43;;;4.10;99.90;;;;;;5074837;28;20051;-74
2022/05/02 04:01:04;;;;;;;12.00;7.45;;;4.10;99.90;;;;;;5074154;28;20131;-74
2022/05/02 04:03:29;;;;;;;14.63;8.45;;;4.10;99.90;;;;;;5075400;28;20048;-74
2022/05/02 04:05:55;;;;;;;12.93;8.30;;;4.10;99.90;;;;;;5074079;28;20045;-75
2022/05/02 04:08:21;;;;;;;13.23;7.80;;;4.10;99.90;;;;;;5074931;28;20445;-75
2022/05/02 04:10:47;;;;;;;15.65;8.98;;;4.20;99.90;;;;;;5075283;28;20041;-73
2022/05/02 04:13:12;;;;;;;13.27;8.45;;;4.10;99.90;;;;;;5073695;28;20086;-74
2022/05/02 04:15:38;;;;;;;11.23;7.80;;;4.10;99.90;;;;;;5075099;28;20070;-74
2022/05/02 04:18:04;;;;;;;11.68;8.60;;;4.10;99.90;;;;;;5073899;28;20483;-73
2022/05/02 04:20:30;;;;;;;10.40;7.60;;;4.10;99.90;;;;;;5074764;28;20483;-74
2022/05/02 04:22:56;;;;;;;12.82;7.75;;;4.10;99.90;;;;;;5074669;28;20052;-74
2022/05/02 04:25:21;;;;;;;10.63;7.38;;;4.10;99.90;;;;;;5073532;28;20051;-74
2022/05/02 04:27:47;;;;;;;11.60;7.68;;;4.10;99.90;;;;;;5073665;28;20040;-74
2022/05/02 04:30:14;;;;;;;12.05;7.97;;;4.10;99.90;;;;;;5073491;28;20127;-74
2022/05/02 04:32:39;;;;;;;10.32;7.20;;;4.10;99.90;;;;;;5073409;28;20078;-74
2022/05/02 04:35:06;;;;;;;12.90;7.70;;;4.00;99.90;;;;;;5073256;28;20090;-74
2022/05/02 04:37:32;;;;;;;11.65;8.00;;;4.10;99.90;;;;;;5073023;28;20041;-74
2022/05/02 04:39:58;;;;;;;12.05;8.27;;;4.10;99.90;;;;;;5073065;28;20106;-74
2022/05/02 04:42:24;;;;;;;12.05;8.20;;;4.10;99.90;;;;;;5073078;28;20048;-74
2022/05/02 04:44:49;;;;;;;17.33;8.23;;;4.20;99.90;;;;;;5073249;28;20045;-74
2022/05/02 04:47:16;;;;;;;10.85;7.78;;;4.20;99.90;;;;;;5073047;28;20446;-74
2022/05/02 04:49:41;;;;;;;15.15;9.13;;;4.30;99.90;;;;;;5074171;28;20063;-74
2022/05/02 04:52:07;;;;;;;15.52;8.65;;;4.30;99.90;;;;;;5074244;28;20399;-74
2022/05/02 04:54:33;;;;;;;13.60;8.73;;;4.50;99.90;;;;;;5073100;28;20134;-74
2022/05/02 04:56:59;;;;;;;13.27;8.07;;;4.60;99.90;;;;;;5072751;28;20044;-74
2022/05/02 04:59:24;;;;;;;13.95;8.43;;;4.80;99.90;;;;;;5074154;28;20051;-74
2022/05/02 05:01:50;;;;;;;13.73;8.18;;;4.90;99.90;;;;;;5073298;28;20052;-73
2022/05/02 05:04:16;;;;;;;11.93;7.82;;;5.10;99.90;;;;;;5074070;28;20131;-75
2022/05/02 05:06:42;;;;;;;12.63;8.60;;;5.30;99.90;;;;;;5072556;28;20067;-75
2022/05/02 05:09:07;;;;;;;12.60;8.40;;;5.40;99.90;;;;;;5074074;28;20044;-76
2022/05/02 05:12:00;;;;;;;13.05;9.13;;;5.60;99.90;;;;;;5072690;28;20434;-76
2022/05/02 05:17:53;;;;;;;12.18;8.63;;;5.90;99.90;;;;;;5074192;28;20055;-76
2022/05/02 05:20:19;;;;;;;14.15;9.15;;;6.10;99.90;;;;;;5073895;28;20048;-76
2022/05/02 05:23:15;;;;;;;12.68;7.88;;;6.30;99.90;;;;;;5073960;28;20044;-75
2022/05/02 05:26:05;;;;;;;12.38;7.05;;;6.40;99.90;;;;;;5073879;28;20037;-75
2022/05/02 05:28:41;;;;;;;12.50;7.43;;;6.60;99.90;;;;;;5072285;28;20123;-75
2022/05/02 05:31:19;;;;;;;10.70;7.82;;;6.80;99.90;;;;;;5073719;28;20094;-75
2022/05/02 05:33:56;;;;;;;10.52;6.88;;;6.90;99.90;;;;;;5073725;28;20048;-75
2022/05/02 05:36:34;;;;;;;13.25;7.40;;;7.10;99.90;;;;;;5072600;28;20047;-75
2022/05/02 05:39:05;;;;;;;10.63;7.60;;;7.30;99.90;;;;;;5073702;28;20094;-76
2022/05/02 05:41:48;;;;;;;9.73;6.40;;;7.50;99.90;;;;;;5073683;28;20485;-76
2022/05/02 05:44:29;;;;;;;11.30;6.93;;;7.70;99.90;;;;;;5072385;28;20052;-76
2022/05/02 05:47:12;;;;;;;8.45;6.70;;;7.90;99.90;;;;;;5072380;28;20071;-75
2022/05/02 05:49:55;;;;;;;11.13;6.38;;;8.00;99.90;;;;;;5073469;28;20173;-76
2022/05/02 05:52:44;;;;;;;10.80;5.70;;;8.20;99.90;;;;;;5072176;28;20083;-75
2022/05/02 05:55:21;;;;;;;6.40;5.50;;;8.30;99.90;;;;;;5073566;28;20040;-76
2022/05/02 05:58:06;;;;;;;10.98;5.70;;;8.50;99.90;;;;;;5073553;28;20040;-76
2022/05/02 06:00:42;;;;;;;7.57;5.15;;;8.70;99.90;;;;;;5073228;28;20475;-76
2022/05/02 06:03:14;;;;;;;9.30;5.30;;;8.80;99.90;;;;;;5071743;28;20415;-75
2022/05/02 06:05:45;;;;;;;8.50;5.03;;;9.00;99.90;;;;;;5072203;28;20045;-75
2022/05/02 06:08:14;;;;;;;7.28;4.72;;;9.10;99.90;;;;;;5073240;28;20501;-75
2022/05/02 06:10:45;;;;;;;5.83;4.87;;;9.30;99.90;;;;;;5073317;28;20053;-75
2022/05/02 06:13:14;;;;;;;6.65;3.92;;;9.50;99.90;;;;;;5072430;28;20342;-76
2022/05/02 06:18:31;;;;;;;7.00;4.43;;;9.90;99.90;;;;;;5076048;28;20052;-75
2022/05/02 06:21:05;;;;;;;8.43;4.40;;;10.00;99.90;;;;;;5076068;28;20044;-76
2022/05/02 06:23:48;;;;;;;7.40;4.50;;;10.10;99.90;;;;;;5077235;28;20095;-76
2022/05/02 06:26:14;;;;;;;7.07;4.60;;;10.20;99.90;;;;;;5077446;28;20146;-76
2022/05/02 06:28:43;;;;;;;8.65;4.90;;;10.30;99.90;;;;;;5075806;28;20502;-76
2022/05/02 06:31:15;;;;;;;9.85;5.20;;;10.10;99.90;;;;;;5077080;28;20052;-77
2022/05/02 06:33:42;;;;;;;9.23;5.05;;;10.30;99.90;;;;;;5075363;28;20048;-76
2022/05/02 06:36:15;;;;;;;8.07;5.80;;;10.50;99.90;;;;;;5075692;28;20044;-77
2022/05/02 06:39:00;;;;;;;7.55;5.22;;;10.70;99.90;;;;;;5076936;28;20041;-78
2022/05/02 06:41:41;;;;;;;9.15;5.95;;;10.90;99.90;;;;;;5075645;28;20044;-79
2022/05/02 06:44:24;;;;;;;9.43;5.43;;;11.20;99.90;;;;;;5076855;28;20052;-75
2022/05/02 06:46:53;;;;;;;8.38;4.50;;;11.20;99.90;;;;;;5076521;28;20037;-75
2022/05/02 06:49:19;;;;;;;9.15;4.95;;;11.20;99.90;;;;;;5076676;28;20052;-79
2022/05/02 06:51:49;;;;;;;7.85;4.53;;;11.20;99.90;;;;;;5075436;28;20037;-78
2022/05/02 06:54:30;;;;;;;10.55;5.10;;;11.30;99.90;;;;;;5076568;28;20052;-74
2022/05/02 06:57:02;;;;;;;6.45;4.63;;;11.50;99.90;;;;;;5076618;28;20036;-74
2022/05/02 06:59:36;;;;;;;6.68;4.85;;;11.70;99.90;;;;;;5076408;28;20120;-74
2022/05/02 07:02:17;;;;;;;7.60;4.85;;;11.70;99.90;;;;;;5076319;28;20052;-75
2022/05/02 07:04:56;;;;;;;8.43;4.50;;;11.90;99.90;;;;;;5072752;28;20106;-75
2022/05/02 07:07:51;;;;;;;9.18;4.70;;;11.80;99.90;;;;;;5064970;28;20091;-75
2022/05/02 07:10:29;;;;;;;6.05;2.95;;;12.00;99.90;;;;;;5055983;28;20103;-74
2022/05/02 07:13:21;;;;;;;6.68;3.67;;;11.90;99.90;;;;;;5056147;28;20091;-76
2022/05/02 07:15:54;;;;;;;6.78;4.07;;;12.30;99.90;;;;;;5054911;28;20045;-74
2022/05/02 07:18:34;;;;;;;7.43;3.95;;;12.30;99.90;;;;;;5088135;28;20491;-74
2022/05/02 07:21:17;;;;;;;5.22;3.45;;;12.30;99.90;;;;;;5054503;28;20052;-74
2022/05/02 07:24:20;;;;;;;8.23;4.07;;;12.30;99.90;;;;;;5055800;28;20048;-74
2022/05/02 07:26:58;;;;;;;5.95;3.40;;;12.50;99.90;;;;;;5055688;28;20132;-74
2022/05/02 07:29:25;;;;;;;7.60;3.47;;;12.50;99.90;;;;;;5054385;28;20045;-74
2022/05/02 07:31:51;;;;;;;5.05;2.67;;;12.50;99.90;;;;;;5055665;28;20083;-74
2022/05/02 07:34:19;;;;;;;5.45;2.42;;;12.70;99.90;;;;;;5055587;28;20080;-74
2022/05/02 07:36:54;;;;;;;5.97;2.83;;;12.80;99.90;;;;;;5055582;28;20049;-73
2022/05/02 07:39:22;;;;;;;4.82;2.72;;;12.80;99.90;;;;;;5055436;28;20052;-73
2022/05/02 07:41:50;;;;;;;3.70;2.20;;;12.90;99.90;;;;;;5055427;28;20053;-73
2022/05/02 07:44:18;;;;;;;3.30;2.30;;;12.90;99.90;;;;;;5055515;28;20183;-73
2022/05/02 07:46:50;;;;;;;4.47;2.33;;;13.00;99.90;;;;;;5055512;28;20064;-73
2022/05/02 07:49:23;;;;;;;4.10;2.40;;;13.00;99.90;;;;;;5054123;28;20056;-74
2022/05/02 07:51:52;;;;;;;4.82;3.00;;;13.10;99.90;;;;;;5055236;28;20055;-74
2022/05/02 07:54:25;;;;;;;3.78;2.25;;;13.40;99.90;;;;;;5055368;28;20045;-73
2022/05/02 07:56:51;;;;;;;4.53;2.58;;;13.50;99.90;;;;;;5053767;28;20053;-73
2022/05/02 07:59:24;;;;;;;9.43;2.67;;;13.60;99.90;;;;;;5056943;28;20053;-73
2022/05/02 08:01:50;;;;;;;3.55;2.35;;;13.80;99.90;;;;;;5062227;28;20082;-74
2022/05/02 08:04:17;;;;;;;4.90;3.13;;;14.00;99.90;;;;;;5054820;28;20128;-74
2022/05/02 08:07:30;;;;;;;6.32;3.17;;;13.90;99.90;;;;;;5053599;28;20041;-74
2022/05/02 08:10:30;;;;;;;3.58;2.42;;;14.10;99.90;;;;;;5013081;28;20053;-73
2022/05/02 08:13:01;;;;;;;4.05;1.88;;;13.90;99.90;;;;;;5012886;28;20149;-74
2022/05/02 08:15:55;;;;;;;6.28;2.42;;;13.80;99.90;;;;;;5041541;28;20053;-73
2022/05/02 08:18:55;;;;;;;3.10;1.80;;;14.10;99.90;;;;;;5054611;28;20041;-74
2022/05/02 08:21:27;;;;;;;3.92;2.17;;;14.00;99.90;;;;;;5054626;28;20045;-73
2022/05/02 08:27:17;;;;;;;3.80;2.13;;;14.20;99.90;;;;;;5054690;28;20076;-73
2022/05/02 08:29:48;;;;;;;3.67;2.30;;;14.30;99.90;;;;;;5057008;28;20045;-73
2022/05/02 08:32:28;;;;;;;5.57;2.20;;;14.60;99.90;;;;;;5063329;28;20120;-73
2022/05/02 08:35:17;;;;;;;5.00;2.40;;;14.70;99.90;;;;;;5053072;28;20063;-73
2022/05/02 08:37:49;;;;;;;3.75;1.90;;;14.60;99.90;;;;;;5053676;28;20080;-74
2022/05/02 08:40:24;;;;;;;7.13;2.40;;;14.60;99.90;;;;;;5059704;28;20062;-74
2022/05/02 08:43:11;;;;;;;4.38;2.15;;;14.50;99.90;;;;;;5057432;28;20084;-74
2022/05/02 08:45:51;;;;;;;3.17;1.95;;;14.40;99.90;;;;;;5054044;28;20049;-74
2022/05/02 08:52:18;;;;;;;3.95;2.42;;;14.70;99.90;;;;;;5053878;28;20385;-73
2022/05/02 08:55:04;;;;;;;4.18;2.05;;;14.90;99.90;;;;;;5054109;28;20095;-74
2022/05/02 08:57:53;;;;;;;4.28;2.17;;;14.90;99.90;;;;;;5053972;28;20144;-74
2022/05/02 09:00:27;;;;;;;3.67;2.30;;;14.80;99.90;;;;;;5059185;28;20098;-74
2022/05/02 09:03:17;;;;;;;5.93;2.30;;;15.20;99.90;;;;;;5057381;28;20136;-74
2022/05/02 09:05:58;;;;;;;3.65;2.10;;;15.30;99.90;;;;;;5054063;28;20080;-73
2022/05/02 09:09:00;;;;;;;3.78;2.10;;;15.50;99.90;;;;;;5053908;28;20067;-74
2022/05/02 09:11:53;;;;;;;3.67;2.17;;;15.20;99.90;;;;;;5054335;28;20045;-74
2022/05/02 09:14:56;;;;;;;4.10;2.05;;;15.00;99.90;;;;;;5053051;28;20498;-74
2022/05/02 09:17:36;;;;;;;5.20;2.53;;;15.30;99.90;;;;;;5054266;28;20055;-74
2022/05/02 09:20:23;;;;;;;4.50;2.25;;;15.40;99.90;;;;;;5085755;28;20053;-74
2022/05/02 09:23:34;;;;;;;4.30;1.88;;;15.30;99.90;;;;;;5085754;28;20064;-74
2022/05/02 09:26:06;;;;;;;4.35;2.42;;;15.50;99.90;;;;;;5037565;28;20060;-74
2022/05/02 09:28:53;;;;;;;3.60;1.80;;;15.40;99.90;;;;;;5085661;28;20052;-74
2022/05/02 09:31:41;;;;;;;4.88;1.85;;;15.20;99.90;;;;;;5064667;28;20052;-74
2022/05/02 09:34:09;;;;;;;4.90;2.53;;;15.40;99.90;;;;;;5052411;28;20053;-73
2022/05/02 09:37:06;;;;;;;4.43;1.98;;;15.50;99.90;;;;;;5051906;28;20133;-74
2022/05/02 09:40:01;;;;;;;4.78;2.08;;;15.40;99.90;;;;;;5053130;28;20120;-73
2022/05/02 09:42:45;;;;;;;3.63;2.47;;;15.30;99.90;;;;;;5028751;28;20100;-73
2022/05/02 09:51:31;;;;;;;4.82;2.38;;;15.40;99.90;;;;;;5051748;28;20085;-73
2022/05/02 09:57:31;;;;;;;4.63;3.03;;;15.60;99.90;;;;;;5030052;28;20537;-73
2022/05/02 10:02:52;;;;;;;5.38;2.70;;;15.60;99.90;;;;;;5052421;28;20060;-75
2022/05/02 10:05:26;;;;;;;5.85;3.33;;;15.70;99.90;;;;;;5085616;28;20049;-76
2022/05/02 10:08:04;;;;;;;8.02;2.60;;;15.50;99.90;;;;;;5053011;28;20065;-74
2022/05/02 10:10:42;;;;;;;4.95;2.70;;;15.90;99.90;;;;;;5053039;28;20049;-75
2022/05/02 10:13:08;;;;;;;4.22;2.50;;;16.10;99.90;;;;;;5052797;28;20484;-74
2022/05/02 10:16:04;;;;;;;4.60;2.42;;;15.90;99.90;;;;;;5053054;28;20041;-75
2022/05/02 10:19:11;;;;;;;4.60;3.00;;;15.70;99.90;;;;;;5052763;28;20045;-74
2022/05/02 10:21:58;;;;;;;6.68;2.58;;;16.20;99.90;;;;;;5052617;28;20053;-77
2022/05/02 10:24:37;;;;;;;4.55;2.38;;;16.20;99.90;;;;;;5053142;28;20045;-77
2022/05/02 10:27:17;;;;;;;4.55;2.85;;;16.60;99.90;;;;;;5085064;28;20060;-77
2022/05/02 10:29:46;;;;;;;5.30;2.83;;;16.60;99.90;;;;;;5052990;28;20045;-78
2022/05/02 10:32:40;;;;;;;5.13;2.58;;;16.70;99.90;;;;;;5085100;28;20045;-77
2022/05/02 10:35:12;;;;;;;5.80;2.55;;;16.30;99.90;;;;;;5085283;28;20084;-77
2022/05/02 10:37:42;;;;;;;3.97;2.10;;;16.00;99.90;;;;;;5053015;28;20036;-77
2022/05/02 10:40:12;;;;;;;6.45;2.58;;;16.30;99.90;;;;;;5051382;28;20045;-77
2022/05/02 10:42:56;;;;;;;3.95;2.35;;;16.40;99.90;;;;;;5051398;28;20049;-77
2022/05/02 10:45:26;;;;;;;5.03;2.15;;;16.50;99.90;;;;;;5052587;28;20538;-77
2022/05/02 10:48:04;;;;;;;3.63;1.88;;;16.50;99.90;;;;;;5051336;28;20496;-78
2022/05/02 10:50:37;;;;;;;4.38;2.30;;;16.20;99.90;;;;;;5052458;28;20400;-78
2022/05/02 10:53:08;;;;;;;4.13;2.40;;;16.20;99.90;;;;;;5052721;28;20045;-78
2022/05/02 10:56:09;;;;;;;5.45;2.30;;;16.50;99.90;;;;;;5051472;28;20049;-78
2022/05/02 10:58:35;;;;;;;5.60;2.00;;;16.40;99.90;;;;;;5085097;28;20063;-79
2022/05/02 11:01:06;;;;;;;5.00;1.98;;;16.30;99.90;;;;;;5055717;28;20037;-79
2022/05/02 11:03:53;;;;;;;4.30;2.03;;;16.60;99.90;;;;;;5088230;28;20045;-79
2022/05/02 11:06:57;;;;;;;5.63;2.13;;;16.40;99.90;;;;;;5088431;28;20064;-79
2022/05/02 11:09:39;;;;;;;;;;;16.40;99.90;;;;;;5056614;28;20072;-76
2022/05/02 11:12:09;;;;;;;4.40;1.95;;;16.50;99.90;;;;;;5056169;28;20252;-76
2022/05/02 11:15:01;;;;;;;4.53;1.80;;;16.70;99.90;;;;;;5054664;28;20053;-76
2022/05/02 11:17:49;;;;;;;3.70;2.10;;;16.50;99.90;;;;;;5088174;28;20059;-77
2022/05/02 11:20:43;;;;;;;3.13;1.90;;;16.40;99.90;;;;;;5088374;28;20049;-77
2022/05/02 11:23:27;;;;;;;12.68;2.25;;;16.20;99.90;;;;;;5088383;28;20384;-77
2022/05/02 11:26:27;;;;;;;7.30;2.50;;;16.10;99.90;;;;;;5088569;28;20052;-77
2022/05/02 11:29:13;;;;;;;8.50;2.70;;;16.20;99.90;;;;;;5055869;28;20041;-77
2022/05/02 11:32:08;;;;;;;5.18;2.38;;;16.30;99.90;;;;;;5055604;28;20049;-76
2022/05/02 11:35:22;;;;;;;9.63;2.80;;;16.10;99.90;;;;;;5045867;28;20057;-76
2022/05/02 11:37:56;;;;;;;;;;;16.00;99.90;;;;;;5053027;28;20061;-74
2022/05/02 11:40:41;;;;;;;4.75;2.17;;;15.80;99.90;;;;;;5055295;28;19928;-75
2022/05/02 11:43:09;;;;;;;5.78;2.30;;;15.80;99.90;;;;;;5055667;28;20041;-75
2022/05/02 11:45:47;;;;;;;4.32;2.30;;;16.20;99.90;;;;;;5055559;28;20052;-75
2022/05/02 11:48:15;;;;;;;5.03;2.20;;;16.50;99.90;;;;;;5053998;28;20072;-75
2022/05/02 11:50:46;;;;;;;5.20;2.38;;;16.40;99.90;;;;;;5055158;28;20056;-75
2022/05/02 11:53:14;;;;;;;5.13;2.30;;;16.30;99.90;;;;;;5055371;28;20048;-75
2022/05/02 11:55:45;;;;;;;5.47;2.45;;;16.50;99.90;;;;;;5055084;28;20059;-75
2022/05/02 11:58:26;;;;;;;4.32;2.45;;;16.60;99.90;;;;;;5087619;28;20045;-75
2022/05/02 12:01:03;;;;;;;5.15;2.50;;;16.10;99.90;;;;;;5055069;28;20048;-75
2022/05/02 12:03:57;;;;;;;4.68;2.72;;;16.20;99.90;;;;;;5054827;28;20111;-75
2022/05/02 12:06:36;;;;;;;;;;;15.90;99.90;;;;;;5055361;28;20037;-75
2022/05/02 12:09:03;;;;;;;7.80;3.03;;;15.90;99.90;;;;;;5057347;28;19927;-75
2022/05/02 12:11:30;;;;;;;5.35;2.90;;;15.70;99.90;;;;;;5065137;28;20051;-75
2022/05/02 12:13:59;;;;;;;6.20;3.00;;;15.70;99.90;;;;;;5073832;28;20036;-75
2022/05/02 12:16:27;;;;;;;3.53;2.30;;;15.90;99.90;;;;;;5080923;28;20373;-75
2022/05/02 12:18:54;;;;;;;6.95;2.88;;;15.80;99.90;;;;;;5082564;28;20055;-76
2022/05/02 12:21:54;;;;;;;3.22;2.13;;;16.10;99.90;;;;;;5084521;28;20059;-76
2022/05/02 12:24:28;;;;;;;4.70;2.55;;;16.20;99.90;;;;;;5065422;28;20087;-75
2022/05/02 12:26:56;;;;;;;5.95;2.45;;;15.90;99.90;;;;;;5078884;28;20039;-75
2022/05/02 12:29:22;;;;;;;5.57;2.65;;;15.80;99.90;;;;;;5082421;28;20492;-76
2022/05/02 12:31:59;;;;;;;5.25;2.78;;;15.60;99.90;;;;;;5082401;28;20055;-75
2022/05/02 12:34:37;;;;;;;3.85;2.50;;;15.90;99.90;;;;;;5082697;28;20051;-76
2022/05/02 12:37:23;;;;;;;7.78;2.75;;;15.60;99.90;;;;;;5115422;27;20052;-76
2022/05/02 12:40:09;;;;;;;5.40;2.33;;;15.90;99.90;;;;;;5073347;28;20040;-76
2022/05/02 12:42:49;;;;;;;3.92;2.55;;;15.70;99.90;;;;;;5078501;28;20036;-76
2022/05/02 12:45:20;;;;;;;5.63;2.20;;;16.00;99.90;;;;;;5115192;27;20074;-76
2022/05/02 12:48:07;;;;;;;3.80;2.35;;;16.10;99.90;;;;;;5080071;28;20044;-76
2022/05/02 12:50:44;;;;;;;5.32;2.40;;;16.40;99.90;;;;;;5077426;28;20044;-76
2022/05/02 12:54:09;;;;;;;5.97;3.13;;;16.60;99.90;;;;;;5078721;28;20048;-76
2022/05/02 12:56:05;;;;;;;4.88;2.45;;;16.60;99.90;;;;;;5082341;28;20079;-76
2022/05/02 13:01:20;;;;;;;5.22;2.25;;;16.60;99.90;;;;;;5081480;28;20055;-75
2022/05/02 13:03:56;;;;;;;5.15;2.17;;;16.30;99.90;;;;;;5079999;28;20048;-76
2022/05/02 13:06:22;;;;;;;4.32;2.20;;;16.50;99.90;;;;;;5080671;28;20380;-76
2022/05/02 13:08:49;;;;;;;4.38;1.95;;;16.60;99.90;;;;;;5075941;28;20507;-76
2022/05/02 13:11:25;;;;;;;3.90;2.42;;;16.80;99.90;;;;;;5083314;28;20076;-76
2022/05/02 13:13:56;;;;;;;7.57;2.17;;;16.90;99.90;;;;;;5078479;28;20554;-76
2022/05/02 13:16:28;;;;;;;4.18;2.53;;;17.10;99.90;;;;;;5080248;28;20054;-76
2022/05/02 13:18:55;;;;;;;5.28;2.15;;;17.30;99.90;;;;;;5109382;27;20047;-76
2022/05/02 13:21:21;;;;;;;5.65;2.10;;;17.40;99.90;;;;;;5084722;28;20178;-75
2022/05/02 13:24:10;;;;;;;2.83;1.90;;;17.40;99.90;;;;;;5077261;28;20120;-76
2022/05/02 13:27:02;;;;;;;4.05;2.50;;;17.40;99.90;;;;;;5081027;28;20052;-75
2022/05/02 13:29:43;;;;;;;4.35;2.10;;;17.60;99.90;;;;;;5070466;28;20053;-76
2022/05/02 13:32:15;;;;;;;4.60;2.13;;;17.70;99.90;;;;;;5072046;28;20040;-76
2022/05/02 13:34:50;;;;;;;2.45;1.60;;;17.70;99.90;;;;;;5071114;28;20056;-76
2022/05/02 13:37:37;;;;;;;2.75;1.77;;;17.90;99.90;;;;;;5072016;28;20499;-77
2022/05/02 13:40:03;;;;;;;4.78;2.38;;;17.80;99.90;;;;;;5108373;27;20052;-76
2022/05/02 13:42:41;;;;;;;3.05;1.95;;;17.70;99.90;;;;;;5078870;28;20036;-76
2022/05/02 13:45:35;;;;;;;4.65;2.38;;;17.70;99.90;;;;;;5082306;28;20040;-75
2022/05/02 13:48:19;;;;;;;4.32;2.60;;;17.70;99.90;;;;;;5052191;28;20127;-76
2022/05/02 13:50:52;;;;;;;3.78;2.22;;;17.60;99.90;;;;;;5085626;28;20048;-75
2022/05/02 13:53:59;;;;;;;3.92;2.20;;;17.70;99.90;;;;;;5085474;28;20053;-76